Terminal Aerodrome Forecast
Issued by NWS Atlanta, GA

Home | Current Version | Previous Version | Text Only | Print | Product List | Glossary On
Versions: 1 2 3 4 5 6 7 8 9 10 11 12 13 14 15 16 17 18 19 20 21 22 23 24 25 26 27 28 29 30 31 32 33 34 35 36 37 38
000
FTUS42 KFFC 050131 AAA
TAFATL
TAF AMD
KATL 050131Z 0502/0606 04006KT P6SM SCT070 SCT250
     FM050500 06005KT P6SM SCT110
     FM051400 08006KT P6SM SCT050
     FM051800 09009KT P6SM BKN050 PROB30 0518/0524 5SM -TSRA
      BKN045CB
     FM060000 09007KT P6SM SCT070 SCT250=

USA.gov is the U.S. government's official web portal to all federal, state and local government web resources and services.